Caspar, California
Current Conditions -  °F | °C
As of 9:56 AM on Saturday 25 Oct 2014 (Local Time) from KUKI Reporting Station
Light Rain Light Rain  
Wind Chill: 61°   Ceiling: 3100
Heat Index: 61°   Visibility: 10mi
Dew Point: 55°   Wind: 13mph
Humidity: 81%   Direction: 140°SE
Pressure: 29.93"   Gusts: 20mph
Location:  39.36°N, 123.82°W
Report Text: KUKI 251656Z AUTO 14011G17KT 10SM -RA BKN031 BKN038 OVC060 16/13 A2993 RMK AO2 RAE01B30 SLP129 P0001 T01610128
Loading
Personal Weather Stations






























Interactive Weather Map
Tropical Storm Tracking
New forecast layout! Learn more

10-Day Weather Forecast

Advertisements
Track Severe Weather on mobile